Mb Linter 2 — UDAE — position and weather

sailwx.info

Track history (hours):
 
Tides and Currents Weather Stations Pressure Air Temp Water Temp Dewpoint Dewpoint Depression Visibility Wind Speed Wind Dir Waves Ship Positions

Mb Linter 2

Last reported at 2017-Dec-09 08:23 UTC. Time now 2017-Dec-12 08:11 UTC.
Position N 45°19' E 036°31'.

Length 26 m; draft 3.2 m.

Type: Ship. MMSI: 273383840.

Date/timePositionNaut miles runAvg speedWind from/ knotsBaromVisibWave heightAir tempDewpointWater temp
2017-Dec-09 08:23N 45°19' E 036°31'4 8.4
2017-Dec-09 07:53N 45°17' E 036°26'1 1.3
2017-Dec-09 07:29N 45°16' E 036°25'0 0.6
2017-Dec-09 06:58N 45°17' E 036°25'1 2.7
2017-Dec-09 06:31N 45°16' E 036°27'4 4.3
2017-Dec-09 05:39N 45°13' E 036°28'1 4.2
2017-Dec-09 05:30N 45°12' E 036°28'2 4.0
2017-Dec-09 05:00N 45°11' E 036°30'3 0.5
2017-Dec-08 23:44N 45°09' E 036°33'3 8.9
2017-Dec-08 23:25N 45°11' E 036°30'4 9.0
2017-Dec-08 23:01N 45°14' E 036°29'4 7.9
2017-Dec-08 22:30N 45°18' E 036°30'4 8.5
2017-Dec-08 22:01N 45°20' E 036°36'4 8.1
2017-Dec-08 21:31N 45°22' E 036°40'2 4.0
2017-Dec-08 21:00N 45°20' E 036°40'2 3.7
2017-Dec-08 20:30N 45°21' E 036°37'5 9.8
2017-Dec-08 20:00N 45°19' E 036°31'4 8.3
2017-Dec-08 19:28N 45°14' E 036°29'5 0.9
2017-Dec-08 13:53N 45°10' E 036°31'4 9.2
2017-Dec-08 13:29N 45°13' E 036°29'5 9.1
2017-Dec-08 12:59N 45°18' E 036°29'4 8.0
2017-Dec-08 12:30N 45°20' E 036°34'4 8.0
2017-Dec-08 12:00N 45°21' E 036°39'1 2.1
2017-Dec-08 11:31N 45°20' E 036°40'0 0.2
2017-Dec-08 10:58N 45°21' E 036°40'0 0.0
2017-Dec-08 10:26N 45°21' E 036°40'0 0.0
2017-Dec-08 09:57N 45°21' E 036°40'0 0.0
2017-Dec-08 09:30N 45°21' E 036°40'0 0.0
2017-Dec-08 08:56N 45°21' E 036°40'0 0.0
2017-Dec-08 08:27N 45°21' E 036°40'0 0.0
2017-Dec-08 08:00N 45°21' E 036°40'0 0.0
2017-Dec-08 07:29N 45°21' E 036°40'0 0.0
2017-Dec-08 06:57N 45°21' E 036°40'0 0.0
2017-Dec-08 06:26N 45°21' E 036°40'0 0.0
2017-Dec-08 05:54N 45°21' E 036°40'0 0.0
2017-Dec-08 05:28N 45°21' E 036°40'0 0.0
2017-Dec-08 04:57N 45°21' E 036°40'0 0.0
2017-Dec-08 04:29N 45°21' E 036°40'0 0.0
2017-Dec-08 03:58N 45°21' E 036°40'0 0.0
2017-Dec-08 03:30N 45°21' E 036°40'0 0.0
2017-Dec-08 02:55N 45°21' E 036°40'0 0.0
2017-Dec-08 02:29N 45°21' E 036°40'0 0.0
2017-Dec-08 01:59N 45°21' E 036°40'0 0.0
2017-Dec-08 01:27N 45°21' E 036°40'0 0.0
2017-Dec-08 00:58N 45°21' E 036°40'0 0.0
2017-Dec-08 00:28N 45°21' E 036°40'0 0.0
2017-Dec-07 23:58N 45°21' E 036°40'0 0.0
2017-Dec-07 23:30N 45°21' E 036°40'0 0.0
2017-Dec-07 22:58N 45°21' E 036°40'0 0.0
2017-Dec-07 22:24N 45°21' E 036°40'0 0.0
2017-Dec-07 22:00N 45°21' E 036°40'0 0.0
2017-Dec-07 21:28N 45°21' E 036°40'0 0.0
2017-Dec-07 20:59N 45°21' E 036°40'0 0.0
2017-Dec-07 20:26N 45°21' E 036°40'0 0.0
2017-Dec-07 19:58N 45°21' E 036°40'0 0.0
2017-Dec-07 19:28N 45°21' E 036°40'0 0.0
2017-Dec-07 19:00N 45°21' E 036°40'0 0.0
2017-Dec-07 18:30N 45°21' E 036°40'0 0.0
2017-Dec-07 18:00N 45°21' E 036°40'0 0.0
2017-Dec-07 17:30N 45°21' E 036°40'0 0.0
2017-Dec-07 16:53N 45°21' E 036°40'0 0.0
2017-Dec-07 16:29N 45°21' E 036°40'0 0.0
2017-Dec-07 16:00N 45°21' E 036°40'0 0.0
2017-Dec-07 15:30N 45°21' E 036°40'0 0.0
2017-Dec-07 15:00N 45°21' E 036°40'0 0.0
2017-Dec-07 14:30N 45°21' E 036°40'0 0.0
2017-Dec-07 13:57N 45°21' E 036°40'0 0.0
2017-Dec-07 13:28N 45°21' E 036°40'0 0.0
2017-Dec-07 12:58N 45°21' E 036°40'0 0.0
2017-Dec-07 12:30N 45°21' E 036°40'0 0.0
2017-Dec-07 11:58N 45°21' E 036°40'0 0.0
2017-Dec-07 11:28N 45°21' E 036°40'0 0.0
2017-Dec-07 10:55N 45°21' E 036°40'0 0.0
2017-Dec-07 10:28N 45°21' E 036°40'0 0.0
2017-Dec-07 09:59N 45°21' E 036°40'0 0.0
2017-Dec-07 09:30N 45°21' E 036°40'0 0.0
2017-Dec-07 08:59N 45°21' E 036°40'0 0.0
2017-Dec-07 08:30N 45°21' E 036°40'0 0.0
2017-Dec-07 08:00N 45°21' E 036°40'0 0.0
2017-Dec-07 07:22N 45°21' E 036°40'0 0.0
2017-Dec-07 06:59N 45°21' E 036°40'0 0.0
2017-Dec-07 06:30N 45°21' E 036°40'0 0.0
2017-Dec-07 05:59N 45°21' E 036°40'0 0.0
2017-Dec-07 05:28N 45°21' E 036°40'0 0.0
2017-Dec-07 05:00N 45°21' E 036°40'0 0.0
2017-Dec-07 04:29N 45°21' E 036°40'0 0.0
2017-Dec-07 03:56N 45°21' E 036°40'0 0.0
2017-Dec-07 03:27N 45°21' E 036°40'0 0.0
2017-Dec-07 02:59N 45°21' E 036°40'0 0.0
2017-Dec-07 02:28N 45°21' E 036°40'0 0.0
2017-Dec-07 01:56N 45°21' E 036°40'0 0.0
2017-Dec-07 01:30N 45°21' E 036°40'0 0.0
2017-Dec-07 01:00N 45°21' E 036°40'0 0.0
2017-Dec-07 00:30N 45°21' E 036°40'0 0.0
2017-Dec-06 23:59N 45°21' E 036°40'0 0.0
2017-Dec-06 23:25N 45°21' E 036°40'0 0.3
2017-Dec-06 23:00N 45°20' E 036°40'1 2.5
2017-Dec-06 22:31N 45°21' E 036°39'5 9.2
2017-Dec-06 22:01N 45°19' E 036°33'  
2017-Dec-04 10:31N 45°20' E 036°40'0 0.1
2017-Dec-04 10:01N 45°20' E 036°40'2 4.5
2017-Dec-04 09:30N 45°23' E 036°41'0 0.2
2017-Dec-04 08:56N 45°23' E 036°42'0 0.0
2017-Dec-04 08:30N 45°23' E 036°42'0 0.0
2017-Dec-04 07:58N 45°23' E 036°42'0 0.0
2017-Dec-04 07:30N 45°23' E 036°41'0 0.0
2017-Dec-04 06:58N 45°23' E 036°42'0 0.0
2017-Dec-04 06:25N 45°23' E 036°42'0 0.0
2017-Dec-04 05:58N 45°23' E 036°42'0 0.0
2017-Dec-04 05:29N 45°23' E 036°42'0 0.0
2017-Dec-04 04:58N 45°23' E 036°42'0 0.0
2017-Dec-04 04:24N 45°23' E 036°42'0 0.0
2017-Dec-04 04:00N 45°23' E 036°42'0 0.0
2017-Dec-04 03:28N 45°23' E 036°42'0 0.0
2017-Dec-04 02:59N 45°23' E 036°42'0 0.0
2017-Dec-04 02:25N 45°23' E 036°42'0 0.0
2017-Dec-04 02:00N 45°23' E 036°42'0 0.0
2017-Dec-04 01:28N 45°23' E 036°42'0 0.9
2017-Dec-04 01:00N 45°22' E 036°41'2 3.6
2017-Dec-04 00:30N 45°21' E 036°40'3 5.3
2017-Dec-04 00:00N 45°20' E 036°36'4 8.4
2017-Dec-03 23:29N 45°19' E 036°30'5 8.2
2017-Dec-03 22:54N 45°14' E 036°29'8 0.9
2017-Dec-03 14:14N 45°07' E 036°35'0 0.3
2017-Dec-03 14:01N 45°07' E 036°35'0 0.0
2017-Dec-03 13:20N 45°07' E 036°35'0 0.1
2017-Dec-03 13:01N 45°07' E 036°35'1 1.2
2017-Dec-03 12:02N 45°08' E 036°33'1 3.1
2017-Dec-03 11:49N 45°09' E 036°33'0 0.1
2017-Dec-03 11:20N 45°09' E 036°33'3 7.3
2017-Dec-03 10:56N 45°11' E 036°31'4 8.7
2017-Dec-03 10:30N 45°15' E 036°29'4 8.0
2017-Dec-03 10:00N 45°19' E 036°30'4 8.8
2017-Dec-03 09:30N 45°20' E 036°36'3 6.3
2017-Dec-03 09:00N 45°20' E 036°40'1 2.0
2017-Dec-03 08:31N 45°21' E 036°40'1 2.4
2017-Dec-03 08:00N 45°22' E 036°41'0 0.0
2017-Dec-03 07:30N 45°22' E 036°41'0 0.0
2017-Dec-03 06:55N 45°22' E 036°41'0 0.0
2017-Dec-03 06:30N 45°22' E 036°41'0 0.0
2017-Dec-03 05:59N 45°22' E 036°41'0 0.0
2017-Dec-03 05:28N 45°22' E 036°41'0 0.0
2017-Dec-03 04:53N 45°22' E 036°41'0 0.0
2017-Dec-03 04:29N 45°22' E 036°41'0 0.0
2017-Dec-03 03:58N 45°22' E 036°41'0 0.0
2017-Dec-03 03:27N 45°22' E 036°41'0 0.0
2017-Dec-03 02:57N 45°22' E 036°41'0 0.0
2017-Dec-03 02:29N 45°22' E 036°41'0 0.0
2017-Dec-03 01:58N 45°22' E 036°41'0 0.0
2017-Dec-03 01:30N 45°22' E 036°41'0 0.0
2017-Dec-03 00:55N 45°22' E 036°41'0 0.0
2017-Dec-03 00:29N 45°22' E 036°41'0 0.0
2017-Dec-02 23:53N 45°22' E 036°41'0 0.0
2017-Dec-02 23:28N 45°22' E 036°41'0 0.0
2017-Dec-02 22:56N 45°22' E 036°41'0 0.0
2017-Dec-02 22:26N 45°22' E 036°41'0 0.0
2017-Dec-02 21:57N 45°22' E 036°41'0 0.0
2017-Dec-02 21:27N 45°22' E 036°41'0 0.0
2017-Dec-02 20:59N 45°22' E 036°41'0 0.0
2017-Dec-02 20:28N 45°22' E 036°41'0 0.0
2017-Dec-02 20:00N 45°22' E 036°41'0 0.0
2017-Dec-02 19:30N 45°22' E 036°41'0 0.0
2017-Dec-02 18:55N 45°22' E 036°41'0 0.0
2017-Dec-02 18:23N 45°22' E 036°41'0 0.0
2017-Dec-02 17:59N 45°22' E 036°41'0 0.0
2017-Dec-02 17:30N 45°22' E 036°41'1 2.3
2017-Dec-02 17:01N 45°21' E 036°40'1 1.7
2017-Dec-02 16:31N 45°21' E 036°39'5 9.4
2017-Dec-02 16:01N 45°19' E 036°33'4 8.4
2017-Dec-02 15:30N 45°16' E 036°29'6 9.2
2017-Dec-02 14:48N 45°10' E 036°31'4 7.8
2017-Dec-02 14:20N 45°07' E 036°34'1 3.4
2017-Dec-02 13:54N 45°08' E 036°33'4 8.7
2017-Dec-02 13:30N 45°11' E 036°31'4 8.5
2017-Dec-02 13:00N 45°15' E 036°29'4 7.4
2017-Dec-02 12:30N 45°19' E 036°31'4 8.4
2017-Dec-02 12:00N 45°20' E 036°36'3 5.7
2017-Dec-02 11:30N 45°20' E 036°40'0 0.0
2017-Dec-02 11:01N 45°20' E 036°40'0 0.0
2017-Dec-02 10:31N 45°20' E 036°40'0 0.0
2017-Dec-02 10:00N 45°20' E 036°40'0 0.0
2017-Dec-02 09:30N 45°20' E 036°40'1 2.3
2017-Dec-02 09:00N 45°21' E 036°39'0 0.0
2017-Dec-02 08:30N 45°21' E 036°39'1 1.1
2017-Dec-02 08:00N 45°21' E 036°38'5 9.1
2017-Dec-02 07:30N 45°19' E 036°32'3 0.1
2017-Nov-30 20:10N 45°21' E 036°29'1 5.3
2017-Nov-30 20:01N 45°21' E 036°30'4 7.4
2017-Nov-30 19:30N 45°17' E 036°29'5 9.0
2017-Nov-30 18:58N 45°12' E 036°30'4 1.3
2017-Nov-30 15:36N 45°09' E 036°33'1 9.1
2017-Nov-30 15:28N 45°10' E 036°32'6 8.6
2017-Nov-30 14:45N 45°15' E 036°28'2 8.6
2017-Nov-30 14:30N 45°17' E 036°28'4 7.8
2017-Nov-30 14:01N 45°19' E 036°33'4 8.2
2017-Nov-30 13:30N 45°21' E 036°38'2 3.2
2017-Nov-30 13:01N 45°20' E 036°40'0 0.0
2017-Nov-30 12:31N 45°20' E 036°40'0 0.0
2017-Nov-30 12:01N 45°20' E 036°40'0 0.0
2017-Nov-30 11:30N 45°20' E 036°40'1 2.0
2017-Nov-30 11:01N 45°21' E 036°39'0 0.2
2017-Nov-30 10:30N 45°21' E 036°39'2 3.5
2017-Nov-30 10:01N 45°20' E 036°37'4 8.1
2017-Nov-30 09:29N 45°19' E 036°31'4 7.5
2017-Nov-30 09:01N 45°16' E 036°29'6 9.1
2017-Nov-30 08:18N 45°10' E 036°32'2 1.1
2017-Nov-30 06:18N 45°09' E 036°35'1 1.6
2017-Nov-30 05:29N 45°08' E 036°35'2 0.3
2017-Nov-29 23:14N 45°10' E 036°35'0 0.0
2017-Nov-29 22:24N 45°10' E 036°35'0 0.0
2017-Nov-29 15:46N 45°10' E 036°35'0 0.1
2017-Nov-29 14:11N 45°10' E 036°35'0 0.1
2017-Nov-29 13:14N 45°10' E 036°35'0 0.0
2017-Nov-29 12:48N 45°10' E 036°35'0 0.0
2017-Nov-29 12:30N 45°10' E 036°35'0 0.0
2017-Nov-29 11:39N 45°10' E 036°35'0 0.0
2017-Nov-29 11:20N 45°10' E 036°35'0 0.0
2017-Nov-29 10:50N 45°10' E 036°35'0 0.0
2017-Nov-29 09:29N 45°10' E 036°35'  
Track history (hours):
 
Tides and Currents Weather Stations Pressure Air Temp Water Temp Dewpoint Dewpoint Depression Visibility Wind Speed Wind Dir Waves Ship Positions

Mb Linter 2

Last reported at 2017-Dec-09 08:23 UTC. Time now 2017-Dec-12 08:11 UTC.
Position N 45°19' E 036°31'.

Length 26 m; draft 3.2 m.

Type: Ship. MMSI: 273383840.

Date/timePositionNaut miles runAvg speedWind from/ knotsBaromVisibWave heightAir tempDewpointWater temp
2017-Dec-09 08:23N 45°19' E 036°31'4 8.4
2017-Dec-09 07:53N 45°17' E 036°26'1 1.3
2017-Dec-09 07:29N 45°16' E 036°25'0 0.6
2017-Dec-09 06:58N 45°17' E 036°25'1 2.7
2017-Dec-09 06:31N 45°16' E 036°27'4 4.3
2017-Dec-09 05:39N 45°13' E 036°28'1 4.2
2017-Dec-09 05:30N 45°12' E 036°28'2 4.0
2017-Dec-09 05:00N 45°11' E 036°30'3 0.5
2017-Dec-08 23:44N 45°09' E 036°33'3 8.9
2017-Dec-08 23:25N 45°11' E 036°30'4 9.0
2017-Dec-08 23:01N 45°14' E 036°29'4 7.9
2017-Dec-08 22:30N 45°18' E 036°30'4 8.5
2017-Dec-08 22:01N 45°20' E 036°36'4 8.1
2017-Dec-08 21:31N 45°22' E 036°40'2 4.0
2017-Dec-08 21:00N 45°20' E 036°40'2 3.7
2017-Dec-08 20:30N 45°21' E 036°37'5 9.8
2017-Dec-08 20:00N 45°19' E 036°31'4 8.3
2017-Dec-08 19:28N 45°14' E 036°29'5 0.9
2017-Dec-08 13:53N 45°10' E 036°31'4 9.2
2017-Dec-08 13:29N 45°13' E 036°29'5 9.1
2017-Dec-08 12:59N 45°18' E 036°29'4 8.0
2017-Dec-08 12:30N 45°20' E 036°34'4 8.0
2017-Dec-08 12:00N 45°21' E 036°39'1 2.1
2017-Dec-08 11:31N 45°20' E 036°40'0 0.2
2017-Dec-08 10:58N 45°21' E 036°40'0 0.0
2017-Dec-08 10:26N 45°21' E 036°40'0 0.0
2017-Dec-08 09:57N 45°21' E 036°40'0 0.0
2017-Dec-08 09:30N 45°21' E 036°40'0 0.0
2017-Dec-08 08:56N 45°21' E 036°40'0 0.0
2017-Dec-08 08:27N 45°21' E 036°40'0 0.0
2017-Dec-08 08:00N 45°21' E 036°40'0 0.0
2017-Dec-08 07:29N 45°21' E 036°40'0 0.0
2017-Dec-08 06:57N 45°21' E 036°40'0 0.0
2017-Dec-08 06:26N 45°21' E 036°40'0 0.0
2017-Dec-08 05:54N 45°21' E 036°40'0 0.0
2017-Dec-08 05:28N 45°21' E 036°40'0 0.0
2017-Dec-08 04:57N 45°21' E 036°40'0 0.0
2017-Dec-08 04:29N 45°21' E 036°40'0 0.0
2017-Dec-08 03:58N 45°21' E 036°40'0 0.0
2017-Dec-08 03:30N 45°21' E 036°40'0 0.0
2017-Dec-08 02:55N 45°21' E 036°40'0 0.0
2017-Dec-08 02:29N 45°21' E 036°40'0 0.0
2017-Dec-08 01:59N 45°21' E 036°40'0 0.0
2017-Dec-08 01:27N 45°21' E 036°40'0 0.0
2017-Dec-08 00:58N 45°21' E 036°40'0 0.0
2017-Dec-08 00:28N 45°21' E 036°40'0 0.0
2017-Dec-07 23:58N 45°21' E 036°40'0 0.0
2017-Dec-07 23:30N 45°21' E 036°40'0 0.0
2017-Dec-07 22:58N 45°21' E 036°40'0 0.0
2017-Dec-07 22:24N 45°21' E 036°40'0 0.0
2017-Dec-07 22:00N 45°21' E 036°40'0 0.0
2017-Dec-07 21:28N 45°21' E 036°40'0 0.0
2017-Dec-07 20:59N 45°21' E 036°40'0 0.0
2017-Dec-07 20:26N 45°21' E 036°40'0 0.0
2017-Dec-07 19:58N 45°21' E 036°40'0 0.0
2017-Dec-07 19:28N 45°21' E 036°40'0 0.0
2017-Dec-07 19:00N 45°21' E 036°40'0 0.0
2017-Dec-07 18:30N 45°21' E 036°40'0 0.0
2017-Dec-07 18:00N 45°21' E 036°40'0 0.0
2017-Dec-07 17:30N 45°21' E 036°40'0 0.0
2017-Dec-07 16:53N 45°21' E 036°40'0 0.0
2017-Dec-07 16:29N 45°21' E 036°40'0 0.0
2017-Dec-07 16:00N 45°21' E 036°40'0 0.0
2017-Dec-07 15:30N 45°21' E 036°40'0 0.0
2017-Dec-07 15:00N 45°21' E 036°40'0 0.0
2017-Dec-07 14:30N 45°21' E 036°40'0 0.0
2017-Dec-07 13:57N 45°21' E 036°40'0 0.0
2017-Dec-07 13:28N 45°21' E 036°40'0 0.0
2017-Dec-07 12:58N 45°21' E 036°40'0 0.0
2017-Dec-07 12:30N 45°21' E 036°40'0 0.0
2017-Dec-07 11:58N 45°21' E 036°40'0 0.0
2017-Dec-07 11:28N 45°21' E 036°40'0 0.0
2017-Dec-07 10:55N 45°21' E 036°40'0 0.0
2017-Dec-07 10:28N 45°21' E 036°40'0 0.0
2017-Dec-07 09:59N 45°21' E 036°40'0 0.0
2017-Dec-07 09:30N 45°21' E 036°40'0 0.0
2017-Dec-07 08:59N 45°21' E 036°40'0 0.0
2017-Dec-07 08:30N 45°21' E 036°40'0 0.0
2017-Dec-07 08:00N 45°21' E 036°40'0 0.0
2017-Dec-07 07:22N 45°21' E 036°40'0 0.0
2017-Dec-07 06:59N 45°21' E 036°40'0 0.0
2017-Dec-07 06:30N 45°21' E 036°40'0 0.0
2017-Dec-07 05:59N 45°21' E 036°40'0 0.0
2017-Dec-07 05:28N 45°21' E 036°40'0 0.0
2017-Dec-07 05:00N 45°21' E 036°40'0 0.0
2017-Dec-07 04:29N 45°21' E 036°40'0 0.0
2017-Dec-07 03:56N 45°21' E 036°40'0 0.0
2017-Dec-07 03:27N 45°21' E 036°40'0 0.0
2017-Dec-07 02:59N 45°21' E 036°40'0 0.0
2017-Dec-07 02:28N 45°21' E 036°40'0 0.0
2017-Dec-07 01:56N 45°21' E 036°40'0 0.0
2017-Dec-07 01:30N 45°21' E 036°40'0 0.0
2017-Dec-07 01:00N 45°21' E 036°40'0 0.0
2017-Dec-07 00:30N 45°21' E 036°40'0 0.0
2017-Dec-06 23:59N 45°21' E 036°40'0 0.0
2017-Dec-06 23:25N 45°21' E 036°40'0 0.3
2017-Dec-06 23:00N 45°20' E 036°40'1 2.5
2017-Dec-06 22:31N 45°21' E 036°39'5 9.2
2017-Dec-06 22:01N 45°19' E 036°33'  
2017-Dec-04 10:31N 45°20' E 036°40'0 0.1
2017-Dec-04 10:01N 45°20' E 036°40'2 4.5
2017-Dec-04 09:30N 45°23' E 036°41'0 0.2
2017-Dec-04 08:56N 45°23' E 036°42'0 0.0
2017-Dec-04 08:30N 45°23' E 036°42'0 0.0
2017-Dec-04 07:58N 45°23' E 036°42'0 0.0
2017-Dec-04 07:30N 45°23' E 036°41'0 0.0
2017-Dec-04 06:58N 45°23' E 036°42'0 0.0
2017-Dec-04 06:25N 45°23' E 036°42'0 0.0
2017-Dec-04 05:58N 45°23' E 036°42'0 0.0
2017-Dec-04 05:29N 45°23' E 036°42'0 0.0
2017-Dec-04 04:58N 45°23' E 036°42'0 0.0
2017-Dec-04 04:24N 45°23' E 036°42'0 0.0
2017-Dec-04 04:00N 45°23' E 036°42'0 0.0
2017-Dec-04 03:28N 45°23' E 036°42'0 0.0
2017-Dec-04 02:59N 45°23' E 036°42'0 0.0
2017-Dec-04 02:25N 45°23' E 036°42'0 0.0
2017-Dec-04 02:00N 45°23' E 036°42'0 0.0
2017-Dec-04 01:28N 45°23' E 036°42'0 0.9
2017-Dec-04 01:00N 45°22' E 036°41'2 3.6
2017-Dec-04 00:30N 45°21' E 036°40'3 5.3
2017-Dec-04 00:00N 45°20' E 036°36'4 8.4
2017-Dec-03 23:29N 45°19' E 036°30'5 8.2
2017-Dec-03 22:54N 45°14' E 036°29'8 0.9
2017-Dec-03 14:14N 45°07' E 036°35'0 0.3
2017-Dec-03 14:01N 45°07' E 036°35'0 0.0
2017-Dec-03 13:20N 45°07' E 036°35'0 0.1
2017-Dec-03 13:01N 45°07' E 036°35'1 1.2
2017-Dec-03 12:02N 45°08' E 036°33'1 3.1
2017-Dec-03 11:49N 45°09' E 036°33'0 0.1
2017-Dec-03 11:20N 45°09' E 036°33'3 7.3
2017-Dec-03 10:56N 45°11' E 036°31'4 8.7
2017-Dec-03 10:30N 45°15' E 036°29'4 8.0
2017-Dec-03 10:00N 45°19' E 036°30'4 8.8
2017-Dec-03 09:30N 45°20' E 036°36'3 6.3
2017-Dec-03 09:00N 45°20' E 036°40'1 2.0
2017-Dec-03 08:31N 45°21' E 036°40'1 2.4
2017-Dec-03 08:00N 45°22' E 036°41'0 0.0
2017-Dec-03 07:30N 45°22' E 036°41'0 0.0
2017-Dec-03 06:55N 45°22' E 036°41'0 0.0
2017-Dec-03 06:30N 45°22' E 036°41'0 0.0
2017-Dec-03 05:59N 45°22' E 036°41'0 0.0
2017-Dec-03 05:28N 45°22' E 036°41'0 0.0
2017-Dec-03 04:53N 45°22' E 036°41'0 0.0
2017-Dec-03 04:29N 45°22' E 036°41'0 0.0
2017-Dec-03 03:58N 45°22' E 036°41'0 0.0
2017-Dec-03 03:27N 45°22' E 036°41'0 0.0
2017-Dec-03 02:57N 45°22' E 036°41'0 0.0
2017-Dec-03 02:29N 45°22' E 036°41'0 0.0
2017-Dec-03 01:58N 45°22' E 036°41'0 0.0
2017-Dec-03 01:30N 45°22' E 036°41'0 0.0
2017-Dec-03 00:55N 45°22' E 036°41'0 0.0
2017-Dec-03 00:29N 45°22' E 036°41'0 0.0
2017-Dec-02 23:53N 45°22' E 036°41'0 0.0
2017-Dec-02 23:28N 45°22' E 036°41'0 0.0
2017-Dec-02 22:56N 45°22' E 036°41'0 0.0
2017-Dec-02 22:26N 45°22' E 036°41'0 0.0
2017-Dec-02 21:57N 45°22' E 036°41'0 0.0
2017-Dec-02 21:27N 45°22' E 036°41'0 0.0
2017-Dec-02 20:59N 45°22' E 036°41'0 0.0
2017-Dec-02 20:28N 45°22' E 036°41'0 0.0
2017-Dec-02 20:00N 45°22' E 036°41'0 0.0
2017-Dec-02 19:30N 45°22' E 036°41'0 0.0
2017-Dec-02 18:55N 45°22' E 036°41'0 0.0
2017-Dec-02 18:23N 45°22' E 036°41'0 0.0
2017-Dec-02 17:59N 45°22' E 036°41'0 0.0
2017-Dec-02 17:30N 45°22' E 036°41'1 2.3
2017-Dec-02 17:01N 45°21' E 036°40'1 1.7
2017-Dec-02 16:31N 45°21' E 036°39'5 9.4
2017-Dec-02 16:01N 45°19' E 036°33'4 8.4
2017-Dec-02 15:30N 45°16' E 036°29'6 9.2
2017-Dec-02 14:48N 45°10' E 036°31'4 7.8
2017-Dec-02 14:20N 45°07' E 036°34'1 3.4
2017-Dec-02 13:54N 45°08' E 036°33'4 8.7
2017-Dec-02 13:30N 45°11' E 036°31'4 8.5
2017-Dec-02 13:00N 45°15' E 036°29'4 7.4
2017-Dec-02 12:30N 45°19' E 036°31'4 8.4
2017-Dec-02 12:00N 45°20' E 036°36'3 5.7
2017-Dec-02 11:30N 45°20' E 036°40'0 0.0
2017-Dec-02 11:01N 45°20' E 036°40'0 0.0
2017-Dec-02 10:31N 45°20' E 036°40'0 0.0
2017-Dec-02 10:00N 45°20' E 036°40'0 0.0
2017-Dec-02 09:30N 45°20' E 036°40'1 2.3
2017-Dec-02 09:00N 45°21' E 036°39'0 0.0
2017-Dec-02 08:30N 45°21' E 036°39'1 1.1
2017-Dec-02 08:00N 45°21' E 036°38'5 9.1
2017-Dec-02 07:30N 45°19' E 036°32'3 0.1
2017-Nov-30 20:10N 45°21' E 036°29'1 5.3
2017-Nov-30 20:01N 45°21' E 036°30'4 7.4
2017-Nov-30 19:30N 45°17' E 036°29'5 9.0
2017-Nov-30 18:58N 45°12' E 036°30'4 1.3
2017-Nov-30 15:36N 45°09' E 036°33'1 9.1
2017-Nov-30 15:28N 45°10' E 036°32'6 8.6
2017-Nov-30 14:45N 45°15' E 036°28'2 8.6
2017-Nov-30 14:30N 45°17' E 036°28'4 7.8
2017-Nov-30 14:01N 45°19' E 036°33'4 8.2
2017-Nov-30 13:30N 45°21' E 036°38'2 3.2
2017-Nov-30 13:01N 45°20' E 036°40'0 0.0
2017-Nov-30 12:31N 45°20' E 036°40'0 0.0
2017-Nov-30 12:01N 45°20' E 036°40'0 0.0
2017-Nov-30 11:30N 45°20' E 036°40'1 2.0
2017-Nov-30 11:01N 45°21' E 036°39'0 0.2
2017-Nov-30 10:30N 45°21' E 036°39'2 3.5
2017-Nov-30 10:01N 45°20' E 036°37'4 8.1
2017-Nov-30 09:29N 45°19' E 036°31'4 7.5
2017-Nov-30 09:01N 45°16' E 036°29'6 9.1
2017-Nov-30 08:18N 45°10' E 036°32'2 1.1
2017-Nov-30 06:18N 45°09' E 036°35'1 1.6
2017-Nov-30 05:29N 45°08' E 036°35'2 0.3
2017-Nov-29 23:14N 45°10' E 036°35'0 0.0
2017-Nov-29 22:24N 45°10' E 036°35'0 0.0
2017-Nov-29 15:46N 45°10' E 036°35'0 0.1
2017-Nov-29 14:11N 45°10' E 036°35'0 0.1
2017-Nov-29 13:14N 45°10' E 036°35'0 0.0
2017-Nov-29 12:48N 45°10' E 036°35'0 0.0
2017-Nov-29 12:30N 45°10' E 036°35'0 0.0
2017-Nov-29 11:39N 45°10' E 036°35'0 0.0
2017-Nov-29 11:20N 45°10' E 036°35'0 0.0
2017-Nov-29 10:50N 45°10' E 036°35'0 0.0
2017-Nov-29 09:29N 45°10' E 036°35'  

Dump ship's entire track history